Time;durP1;ratioP1;P1;durP2;ratioP2;P2;SDS_P1;SDS_P2;PMS_P1;PMS_P2;Temp;Humidity;BMP_temperature;BMP_pressure;BME280_temperature;BME280_humidity;BME280_pressure;Samples;Min_cycle;Max_cycle;Signal;HPM_P1;HPM_P2
2021/09/07 00:01:49;;;;;;;4.25;3.90;;;14.40;99.90;;;;;;5061498;28;20239;-52
2021/09/07 00:04:17;;;;;;;5.05;4.40;;;14.50;99.90;;;;;;5061251;28;20223;-49
2021/09/07 00:06:44;;;;;;;4.88;4.47;;;14.40;99.90;;;;;;5062149;28;20199;-52
2021/09/07 00:09:12;;;;;;;5.13;3.75;;;14.30;99.90;;;;;;5061065;28;20438;-50
2021/09/07 00:11:39;;;;;;;7.47;4.38;;;14.30;99.90;;;;;;5061569;28;20659;-52
2021/09/07 00:14:06;;;;;;;5.20;4.70;;;14.30;99.90;;;;;;5060759;28;20249;-49
2021/09/07 00:16:33;;;;;;;4.47;4.13;;;14.30;99.90;;;;;;5061138;28;20203;-53
2021/09/07 00:19:00;;;;;;;5.82;4.45;;;14.30;99.90;;;;;;5061785;28;20211;-48
2021/09/07 00:21:47;;;;;;;5.95;4.50;;;14.20;99.90;;;;;;5057200;28;20289;-48
2021/09/07 00:24:18;;;;;;;5.20;4.80;;;14.40;99.90;;;;;;5061153;28;20409;-49
2021/09/07 00:26:45;;;;;;;6.22;5.63;;;14.60;99.90;;;;;;5061158;28;20246;-52
2021/09/07 00:29:12;;;;;;;6.70;4.43;;;14.60;99.90;;;;;;5055327;28;20196;-51
2021/09/07 00:31:39;;;;;;;7.95;5.10;;;14.70;99.90;;;;;;5061291;28;20223;-49
2021/09/07 00:34:06;;;;;;;3.95;3.65;;;14.70;99.90;;;;;;5060670;28;20199;-49
2021/09/07 00:36:33;;;;;;;8.02;4.90;;;14.80;99.90;;;;;;5060969;28;20204;-49
2021/09/07 00:39:01;;;;;;;6.03;4.57;;;14.80;99.90;;;;;;5060959;28;20200;-51
2021/09/07 00:41:28;;;;;;;4.80;4.40;;;14.90;99.90;;;;;;5060901;28;20246;-50
2021/09/07 00:43:55;;;;;;;5.93;4.60;;;14.70;99.90;;;;;;5060670;28;20200;-50
2021/09/07 00:46:22;;;;;;;6.13;4.25;;;14.80;99.90;;;;;;5056169;28;20218;-47
2021/09/07 00:48:49;;;;;;;4.15;3.75;;;15.00;99.90;;;;;;5060689;28;20437;-51
2021/09/07 00:51:16;;;;;;;3.90;3.60;;;15.00;99.90;;;;;;5060489;28;20394;-52
2021/09/07 00:53:45;;;;;;;5.78;5.20;;;15.10;99.90;;;;;;5061075;28;20260;-48
2021/09/07 00:56:13;;;;;;;6.75;4.60;;;15.10;99.90;;;;;;5060233;28;20207;-52
2021/09/07 00:58:40;;;;;;;6.10;5.28;;;15.10;99.90;;;;;;5061206;28;20203;-49
2021/09/07 01:01:07;;;;;;;6.07;5.22;;;15.00;99.90;;;;;;5059716;28;20534;-47
2021/09/07 01:03:35;;;;;;;7.28;4.90;;;14.80;99.90;;;;;;5056006;28;20450;-52
2021/09/07 01:06:02;;;;;;;4.80;4.25;;;14.90;99.90;;;;;;5060020;28;20199;-51
2021/09/07 01:08:29;;;;;;;4.40;3.97;;;14.70;99.90;;;;;;5057014;28;20207;-48
2021/09/07 01:10:57;;;;;;;5.53;4.53;;;14.70;99.90;;;;;;5053618;28;20389;-52
2021/09/07 01:13:24;;;;;;;5.28;4.78;;;14.70;99.90;;;;;;5060379;28;20211;-49
2021/09/07 01:15:52;;;;;;;5.40;4.13;;;14.60;99.90;;;;;;5061067;28;20209;-55
2021/09/07 01:18:19;;;;;;;4.47;4.10;;;14.70;99.90;;;;;;5060175;28;20200;-48
2021/09/07 01:20:46;;;;;;;6.15;4.20;;;14.70;99.90;;;;;;5060096;28;20233;-51
2021/09/07 01:23:13;;;;;;;4.97;4.47;;;14.70;99.90;;;;;;5060048;28;20392;-48
2021/09/07 01:25:40;;;;;;;6.20;4.80;;;14.70;99.90;;;;;;5036932;28;20207;-50
2021/09/07 01:28:12;;;;;;;5.10;4.38;;;14.90;99.90;;;;;;5058948;28;20207;-49
2021/09/07 01:30:41;;;;;;;6.32;5.00;;;14.90;99.90;;;;;;5059793;28;20250;-49
2021/09/07 01:33:10;;;;;;;4.70;4.20;;;15.00;99.90;;;;;;5057540;28;20448;-53
2021/09/07 01:35:40;;;;;;;8.80;5.25;;;14.70;99.90;;;;;;5060451;28;20253;-53
2021/09/07 01:38:07;;;;;;;5.55;4.57;;;14.70;99.90;;;;;;5060209;28;20254;-53
2021/09/07 01:40:35;;;;;;;6.10;5.45;;;14.60;99.90;;;;;;5059212;28;20227;-50
2021/09/07 01:43:02;;;;;;;7.53;4.88;;;14.60;99.90;;;;;;5059844;28;20203;-51
2021/09/07 01:45:29;;;;;;;5.85;4.43;;;14.70;99.90;;;;;;5054187;28;20199;-51
2021/09/07 01:47:56;;;;;;;6.10;4.63;;;14.80;99.90;;;;;;5059839;28;20246;-53
2021/09/07 01:50:23;;;;;;;7.10;5.50;;;14.80;99.90;;;;;;5055339;28;20231;-51
2021/09/07 01:52:50;;;;;;;5.88;5.28;;;14.80;99.90;;;;;;5060337;28;20226;-50
2021/09/07 01:55:18;;;;;;;7.35;4.80;;;14.40;99.90;;;;;;5060271;28;20200;-51
2021/09/07 01:57:45;;;;;;;5.13;4.55;;;14.20;99.90;;;;;;5057699;28;20298;-51
2021/09/07 02:00:13;;;;;;;4.78;4.47;;;14.40;99.90;;;;;;5059266;28;20223;-47
2021/09/07 02:02:40;;;;;;;5.28;4.30;;;14.30;99.90;;;;;;5059556;28;20384;-51
2021/09/07 02:05:08;;;;;;;5.57;5.07;;;14.40;99.90;;;;;;5057782;28;20244;-54
2021/09/07 02:07:36;;;;;;;5.20;4.70;;;14.40;99.90;;;;;;5059627;28;20230;-50
2021/09/07 02:10:04;;;;;;;5.10;4.47;;;14.60;99.90;;;;;;5059484;28;20219;-52
2021/09/07 02:12:31;;;;;;;5.47;4.45;;;14.70;99.90;;;;;;5059032;28;20200;-50
2021/09/07 02:14:58;;;;;;;4.70;4.30;;;14.70;99.90;;;;;;5059603;28;20490;-54
2021/09/07 02:17:25;;;;;;;5.35;4.80;;;14.70;99.90;;;;;;5059277;28;20204;-50
2021/09/07 02:19:53;;;;;;;4.97;4.45;;;14.70;99.90;;;;;;5059914;28;20199;-52
2021/09/07 02:22:21;;;;;;;5.68;5.18;;;14.50;99.90;;;;;;5058813;28;20216;-48
2021/09/07 02:24:49;;;;;;;5.10;4.47;;;14.60;99.90;;;;;;5060578;28;20245;-48
2021/09/07 02:27:16;;;;;;;4.43;4.03;;;14.60;99.90;;;;;;5059908;28;20199;-49
2021/09/07 02:29:43;;;;;;;4.75;4.25;;;14.70;99.90;;;;;;5055315;28;20253;-52
2021/09/07 02:32:11;;;;;;;5.20;4.70;;;14.80;99.90;;;;;;5059178;28;20498;-52
2021/09/07 02:34:38;;;;;;;4.38;3.97;;;14.90;99.90;;;;;;5059074;28;20216;-50
2021/09/07 02:37:06;;;;;;;4.85;4.45;;;15.00;99.90;;;;;;5059771;28;20200;-52
2021/09/07 02:39:33;;;;;;;6.18;4.88;;;15.00;99.90;;;;;;5059189;28;20199;-50
2021/09/07 02:42:00;;;;;;;4.90;4.40;;;15.00;99.90;;;;;;5059058;28;20227;-50
2021/09/07 02:44:27;;;;;;;4.25;3.95;;;15.00;99.90;;;;;;5058888;28;20199;-49
2021/09/07 02:46:54;;;;;;;5.28;4.53;;;15.00;99.90;;;;;;5059278;28;20197;-51
2021/09/07 02:49:21;;;;;;;4.68;4.25;;;15.10;99.90;;;;;;5059593;28;20196;-53
2021/09/07 02:51:49;;;;;;;4.45;4.05;;;15.00;99.90;;;;;;5059019;28;20564;-49
2021/09/07 02:54:17;;;;;;;5.15;4.57;;;15.00;99.90;;;;;;5063245;28;20269;-49
2021/09/07 02:56:44;;;;;;;5.10;4.55;;;15.00;99.90;;;;;;5062517;28;20242;-51
2021/09/07 02:59:11;;;;;;;4.93;4.00;;;15.00;99.90;;;;;;5063577;28;20242;-56
2021/09/07 03:01:39;;;;;;;4.78;4.38;;;15.00;99.90;;;;;;5063181;28;20533;-50
2021/09/07 03:04:06;;;;;;;6.30;4.25;;;14.90;99.90;;;;;;5063003;28;20196;-49
2021/09/07 03:06:34;;;;;;;10.68;6.68;;;14.80;99.90;;;;;;5063001;28;20222;-54
2021/09/07 03:09:01;;;;;;;4.80;4.40;;;14.80;99.90;;;;;;5062819;28;20196;-51
2021/09/07 03:11:29;;;;;;;5.00;4.22;;;14.80;99.90;;;;;;5062922;28;20231;-51
2021/09/07 03:13:56;;;;;;;4.70;4.40;;;14.80;99.90;;;;;;5059886;28;20253;-53
2021/09/07 03:16:24;;;;;;;5.70;4.53;;;14.80;99.90;;;;;;5062760;28;20243;-51
2021/09/07 03:18:51;;;;;;;6.03;4.75;;;14.70;99.90;;;;;;5044563;28;20234;-53
2021/09/07 03:21:18;;;;;;;4.50;3.85;;;14.80;99.90;;;;;;5062137;28;20226;-50
2021/09/07 03:23:45;;;;;;;4.93;4.50;;;14.80;99.90;;;;;;5061159;28;20195;-52
2021/09/07 03:26:12;;;;;;;6.13;4.95;;;14.80;99.90;;;;;;5060725;28;20254;-49
2021/09/07 03:28:40;;;;;;;4.30;3.80;;;14.60;99.90;;;;;;5062211;28;20200;-51
2021/09/07 03:31:07;;;;;;;4.60;4.20;;;14.70;99.90;;;;;;5055723;28;20392;-51
2021/09/07 03:33:35;;;;;;;5.38;4.93;;;14.70;99.90;;;;;;5062638;28;20203;-51
2021/09/07 03:36:02;;;;;;;5.93;4.72;;;14.70;99.90;;;;;;5061422;28;20207;-52
2021/09/07 03:38:30;;;;;;;5.32;4.60;;;14.70;99.90;;;;;;5062889;28;20211;-50
2021/09/07 03:40:57;;;;;;;4.32;4.00;;;14.70;99.90;;;;;;5059164;28;20242;-50
2021/09/07 03:43:25;;;;;;;4.10;3.72;;;14.70;99.90;;;;;;5061053;28;20517;-48
2021/09/07 03:45:52;;;;;;;8.20;5.32;;;14.60;99.90;;;;;;5057661;28;20196;-51
2021/09/07 03:48:19;;;;;;;5.40;4.55;;;14.70;99.90;;;;;;5053671;28;20490;-50
2021/09/07 03:50:46;;;;;;;8.20;4.60;;;14.70;99.90;;;;;;5058951;28;21025;-52
2021/09/07 03:53:13;;;;;;;9.48;4.60;;;14.80;99.90;;;;;;5052890;28;20211;-53
2021/09/07 03:55:40;;;;;;;8.23;4.40;;;14.80;99.90;;;;;;5059815;28;20207;-49
2021/09/07 03:58:08;;;;;;;6.57;4.95;;;14.80;99.90;;;;;;5058093;28;20204;-53
2021/09/07 04:00:35;;;;;;;5.07;4.57;;;14.80;99.90;;;;;;5060179;28;20266;-54
2021/09/07 04:03:15;;;;;;;7.40;5.30;;;14.70;99.90;;;;;;5047873;28;20267;-54
2021/09/07 04:05:43;;;;;;;5.50;5.00;;;14.70;99.90;;;;;;5045837;28;20241;-55
2021/09/07 04:08:11;;;;;;;8.77;4.70;;;14.70;99.90;;;;;;5048154;28;20212;-53
2021/09/07 04:10:38;;;;;;;5.03;4.55;;;14.70;99.90;;;;;;5050422;28;20250;-54
2021/09/07 04:13:06;;;;;;;5.75;4.18;;;14.70;99.90;;;;;;5061510;28;20265;-56
2021/09/07 04:15:33;;;;;;;7.05;4.25;;;14.50;99.90;;;;;;5060044;28;20200;-54
2021/09/07 04:18:01;;;;;;;7.75;5.28;;;14.40;99.90;;;;;;5061011;28;20263;-51
2021/09/07 04:20:28;;;;;;;5.72;4.50;;;14.50;99.90;;;;;;5060946;28;20235;-49
2021/09/07 04:22:56;;;;;;;6.80;4.80;;;14.50;99.90;;;;;;5059614;28;20227;-51
2021/09/07 04:25:23;;;;;;;7.65;6.15;;;14.50;99.90;;;;;;5058080;28;20441;-47
2021/09/07 04:27:51;;;;;;;7.10;5.95;;;14.60;99.90;;;;;;5061617;28;20245;-52
2021/09/07 04:30:18;;;;;;;6.03;5.07;;;14.60;99.90;;;;;;5059472;28;20281;-51
2021/09/07 04:32:45;;;;;;;6.85;4.90;;;14.50;99.90;;;;;;5061038;28;20216;-50
2021/09/07 04:35:13;;;;;;;5.07;4.47;;;14.50;99.90;;;;;;5061467;28;20318;-51
2021/09/07 04:37:40;;;;;;;4.82;4.43;;;14.50;99.90;;;;;;5061106;28;20245;-49
2021/09/07 04:40:07;;;;;;;7.43;5.60;;;14.50;99.90;;;;;;5060694;28;20411;-53
2021/09/07 04:42:34;;;;;;;5.45;4.82;;;14.60;99.90;;;;;;5043420;28;20223;-49
2021/09/07 04:45:02;;;;;;;7.57;5.32;;;14.60;99.90;;;;;;5056276;28;20218;-51
2021/09/07 04:47:32;;;;;;;4.95;4.47;;;14.60;99.90;;;;;;5054873;28;20266;-49
2021/09/07 04:50:00;;;;;;;5.05;4.30;;;14.70;99.90;;;;;;5059855;28;20204;-51
2021/09/07 04:52:27;;;;;;;5.88;4.80;;;14.70;99.90;;;;;;5060924;28;20283;-54
2021/09/07 04:54:54;;;;;;;6.05;5.32;;;14.70;99.90;;;;;;5057477;28;20219;-48
2021/09/07 04:57:21;;;;;;;9.30;5.80;;;14.80;99.90;;;;;;5054276;28;20207;-50
2021/09/07 04:59:48;;;;;;;6.13;5.63;;;14.90;99.90;;;;;;5060036;28;20518;-48
2021/09/07 05:02:16;;;;;;;6.93;5.03;;;15.00;99.90;;;;;;5056299;28;20230;-49
2021/09/07 05:04:44;;;;;;;6.50;5.45;;;15.00;99.90;;;;;;5061321;28;20199;-50
2021/09/07 05:07:11;;;;;;;7.30;5.30;;;15.10;99.90;;;;;;5060323;28;20200;-54
2021/09/07 05:09:39;;;;;;;5.63;5.00;;;15.20;99.90;;;;;;5060631;28;20199;-50
2021/09/07 05:12:06;;;;;;;7.00;5.55;;;15.30;99.90;;;;;;5059678;28;20254;-51
2021/09/07 05:14:34;;;;;;;10.20;5.45;;;15.30;99.90;;;;;;5060147;28;20249;-55
2021/09/07 05:17:01;;;;;;;6.68;5.70;;;15.30;99.90;;;;;;5058585;28;20203;-50
2021/09/07 05:19:28;;;;;;;10.90;4.50;;;15.40;99.90;;;;;;5059823;28;20215;-47
2021/09/07 05:21:55;;;;;;;5.97;5.38;;;15.40;99.90;;;;;;5059343;28;20315;-52
2021/09/07 05:24:23;;;;;;;6.00;5.40;;;15.40;99.90;;;;;;5059215;28;20197;-52
2021/09/07 05:26:50;;;;;;;11.85;5.97;;;15.50;99.90;;;;;;5059646;28;20253;-49
2021/09/07 05:29:17;;;;;;;8.73;6.63;;;15.60;99.90;;;;;;5057966;28;20245;-51
2021/09/07 05:31:45;;;;;;;4.95;4.55;;;15.80;99.90;;;;;;5046901;28;20220;-50
2021/09/07 05:34:12;;;;;;;5.88;5.38;;;16.10;99.90;;;;;;5048395;28;20502;-50
2021/09/07 05:36:39;;;;;;;6.80;5.38;;;16.20;99.90;;;;;;5043513;28;20204;-54
2021/09/07 05:39:06;;;;;;;5.90;5.20;;;16.40;99.90;;;;;;5045654;28;20204;-51
2021/09/07 05:41:33;;;;;;;8.75;6.13;;;16.70;99.90;;;;;;5058194;28;20535;-50
2021/09/07 05:44:01;;;;;;;7.00;6.00;;;16.80;99.90;;;;;;5059572;28;20533;-50
2021/09/07 05:46:28;;;;;;;8.40;6.60;;;17.10;99.90;;;;;;5054779;28;20477;-53
2021/09/07 05:48:55;;;;;;;8.70;6.50;;;17.40;99.90;;;;;;5059873;28;20440;-54
2021/09/07 05:51:22;;;;;;;11.03;7.00;;;17.90;99.90;;;;;;5057597;28;20813;-54
2021/09/07 05:53:49;;;;;;;7.77;5.63;;;18.20;99.90;;;;;;5055706;28;20733;-49
2021/09/07 05:56:20;;;;;;;8.77;7.00;;;18.40;99.90;;;;;;5059477;28;20433;-53
2021/09/07 05:58:47;;;;;;;8.80;6.27;;;18.40;99.90;;;;;;5055309;28;20418;-53
2021/09/07 06:01:16;;;;;;;8.50;6.50;;;18.70;99.90;;;;;;5057995;28;20430;-53
2021/09/07 06:03:43;;;;;;;8.00;6.27;;;18.80;99.90;;;;;;5054945;28;20441;-53
2021/09/07 06:06:11;;;;;;;8.10;5.60;;;19.00;99.90;;;;;;5050519;28;20542;-53
2021/09/07 06:08:38;;;;;;;13.53;8.83;;;19.10;99.90;;;;;;5059428;28;21862;-52
2021/09/07 06:11:07;;;;;;;8.83;6.97;;;19.30;99.90;;;;;;5058985;28;20442;-54
2021/09/07 06:13:34;;;;;;;9.57;8.57;;;19.50;99.90;;;;;;5058664;28;20577;-51
2021/09/07 06:16:02;;;;;;;8.87;7.97;;;20.00;99.90;;;;;;5059290;28;20403;-54
2021/09/07 06:18:29;;;;;;;12.90;8.07;;;20.60;99.90;;;;;;5058889;28;20411;-52
2021/09/07 06:20:56;;;;;;;8.40;7.60;;;21.20;99.90;;;;;;5056034;28;20738;-51
2021/09/07 06:23:23;;;;;;;9.40;8.37;;;21.50;99.90;;;;;;5058583;28;20447;-53
2021/09/07 06:25:51;;;;;;;7.93;7.13;;;21.90;99.90;;;;;;5058710;28;20653;-51
2021/09/07 06:28:18;;;;;;;8.20;7.43;;;22.60;99.90;;;;;;5053862;28;20818;-50
2021/09/07 06:30:45;;;;;;;12.53;9.37;;;23.00;99.90;;;;;;5062919;28;20494;-53
2021/09/07 06:33:13;;;;;;;12.10;10.90;;;23.10;99.90;;;;;;5063155;28;20482;-52
2021/09/07 06:35:40;;;;;;;8.70;7.93;;;23.20;99.90;;;;;;5062517;28;20490;-48
2021/09/07 06:38:07;;;;;;;10.13;9.13;;;23.20;99.90;;;;;;5058349;28;20510;-55
2021/09/07 06:40:34;;;;;;;9.20;8.30;;;22.90;99.90;;;;;;5056192;28;20806;-49
2021/09/07 06:43:03;;;;;;;9.73;8.83;;;22.70;99.90;;;;;;5062710;28;20612;-53
2021/09/07 06:45:30;;;;;;;10.07;9.00;;;22.70;99.90;;;;;;5063522;28;20477;-51
2021/09/07 06:47:58;;;;;;;10.97;10.07;;;22.60;99.90;;;;;;5062515;28;20411;-50
2021/09/07 06:50:25;;;;;;;12.33;11.07;;;22.70;99.90;;;;;;5062977;28;20448;-50
2021/09/07 06:52:52;;;;;;;9.33;8.43;;;22.40;99.90;;;;;;5063227;28;20440;-51
2021/09/07 06:55:19;;;;;;;10.03;9.13;;;22.80;99.90;;;;;;5062507;28;20420;-54
2021/09/07 06:57:47;;;;;;;10.43;8.40;;;23.00;99.90;;;;;;5063381;28;20465;-51
2021/09/07 07:00:15;;;;;;;13.97;10.60;;;23.20;99.90;;;;;;5062657;28;20462;-51
2021/09/07 07:02:42;;;;;;;13.80;10.50;;;23.60;99.90;;;;;;5062794;28;20479;-49
2021/09/07 07:05:10;;;;;;;10.67;9.67;;;23.70;99.90;;;;;;5062528;28;20767;-52
2021/09/07 07:07:38;;;;;;;10.53;9.53;;;24.20;99.90;;;;;;5062764;28;20415;-55
2021/09/07 07:10:06;;;;;;;11.00;9.43;;;23.90;99.90;;;;;;5058543;28;20483;-50
2021/09/07 07:12:34;;;;;;;9.80;8.90;;;23.80;99.90;;;;;;5056469;28;20722;-46
2021/09/07 07:15:01;;;;;;;11.23;10.07;;;23.90;99.90;;;;;;5062420;28;20411;-53
2021/09/07 07:17:28;;;;;;;12.27;10.80;;;24.10;99.90;;;;;;5056256;28;20437;-49
2021/09/07 07:19:55;;;;;;;10.93;9.93;;;23.70;99.90;;;;;;5059311;28;20436;-54
2021/09/07 07:22:25;;;;;;;12.47;11.10;;;23.80;99.90;;;;;;5059104;28;20481;-50
2021/09/07 07:24:53;;;;;;;9.50;8.63;;;23.80;99.90;;;;;;5058630;28;20775;-52
2021/09/07 07:27:21;;;;;;;11.63;9.73;;;23.70;99.90;;;;;;5062294;28;20489;-50
2021/09/07 07:29:48;;;;;;;12.57;11.10;;;23.80;99.90;;;;;;5062824;28;20756;-49
2021/09/07 07:32:15;;;;;;;11.97;9.70;;;23.80;99.90;;;;;;5061733;28;20415;-50
2021/09/07 07:34:43;;;;;;;12.77;10.53;;;23.90;99.90;;;;;;5062054;28;20763;-51
2021/09/07 07:37:10;;;;;;;11.40;10.30;;;23.90;99.90;;;;;;5044445;28;20440;-51
2021/09/07 07:39:37;;;;;;;12.20;10.90;;;23.70;99.90;;;;;;5057456;28;20440;-52
2021/09/07 07:42:04;;;;;;;11.67;10.07;;;23.50;99.90;;;;;;5063482;28;20831;-49
2021/09/07 07:44:32;;;;;;;10.97;9.87;;;23.40;99.90;;;;;;5062364;28;20759;-51
2021/09/07 07:47:00;;;;;;;10.10;9.20;;;23.70;99.90;;;;;;5063196;28;20408;-54
2021/09/07 07:49:27;;;;;;;11.30;10.20;;;24.10;99.90;;;;;;5061708;28;20426;-54
2021/09/07 07:51:55;;;;;;;13.17;11.77;;;24.60;99.90;;;;;;5061529;28;20469;-49
2021/09/07 07:54:23;;;;;;;10.83;8.90;;;25.10;99.90;;;;;;5061712;28;20433;-50
2021/09/07 07:56:52;;;;;;;11.93;10.80;;;25.00;99.90;;;;;;5061407;28;20419;-51
2021/09/07 07:59:19;;;;;;;11.67;10.57;;;24.60;99.90;;;;;;5062017;28;20450;-54
2021/09/07 08:01:46;;;;;;;10.03;9.20;;;24.30;99.90;;;;;;5060237;28;20514;-53
2021/09/07 08:04:15;;;;;;;11.40;10.30;;;24.10;99.90;;;;;;5061159;28;20440;-55
2021/09/07 08:06:42;;;;;;;11.33;10.17;;;24.30;99.90;;;;;;5054519;28;20440;-50
2021/09/07 08:09:10;;;;;;;10.97;9.97;;;24.40;99.90;;;;;;5060642;28;20436;-52
2021/09/07 08:11:39;;;;;;;11.00;9.97;;;24.30;99.90;;;;;;5061706;28;20471;-53
2021/09/07 08:14:07;;;;;;;11.17;10.17;;;24.80;99.90;;;;;;5059778;28;20470;-52
2021/09/07 08:16:34;;;;;;;12.30;11.10;;;25.10;99.90;;;;;;5056399;28;20670;-49
2021/09/07 08:19:02;;;;;;;10.30;8.90;;;25.50;99.90;;;;;;5059370;28;20819;-54
2021/09/07 08:21:29;;;;;;;10.87;9.87;;;26.00;99.60;;;;;;5061286;28;20762;-47
2021/09/07 08:23:57;;;;;;;14.03;11.00;;;26.30;99.20;;;;;;5060873;28;20514;-52
2021/09/07 08:26:24;;;;;;;10.23;9.50;;;26.10;98.70;;;;;;5057660;28;20763;-50
2021/09/07 08:28:51;;;;;;;10.13;9.20;;;25.80;99.20;;;;;;5061038;28;20442;-54
2021/09/07 08:31:20;;;;;;;12.87;11.70;;;25.70;99.80;;;;;;5053021;28;20510;-48
2021/09/07 08:33:47;;;;;;;10.97;10.07;;;25.70;99.30;;;;;;5060959;28;20798;-50
2021/09/07 08:36:15;;;;;;;11.30;9.57;;;25.60;99.80;;;;;;5058576;28;20437;-55
2021/09/07 08:38:42;;;;;;;9.93;9.13;;;25.90;99.50;;;;;;5056489;28;20490;-53
2021/09/07 08:41:19;;;;;;;10.73;9.83;;;26.40;98.20;;;;;;5060104;28;20532;-51
2021/09/07 08:43:48;;;;;;;10.67;9.67;;;27.10;97.50;;;;;;5059471;28;20503;-52
2021/09/07 08:46:17;;;;;;;10.97;9.20;;;28.10;96.10;;;;;;5042896;28;20456;-52
2021/09/07 08:48:47;;;;;;;10.33;9.53;;;28.10;95.40;;;;;;5060830;28;20508;-52
2021/09/07 08:51:17;;;;;;;11.60;10.60;;;28.70;94.70;;;;;;5059882;28;20535;-52
2021/09/07 08:53:47;;;;;;;11.50;10.47;;;29.70;93.30;;;;;;5060458;28;20598;-53
2021/09/07 08:56:14;;;;;;;12.30;11.27;;;30.10;92.00;;;;;;5060846;28;20498;-55
2021/09/07 08:58:41;;;;;;;13.33;11.80;;;30.50;91.20;;;;;;5060617;28;20475;-51
2021/09/07 09:01:17;;;;;;;10.67;9.77;;;30.80;89.90;;;;;;5060214;28;20460;-50
2021/09/07 09:03:48;;;;;;;12.20;11.10;;;31.20;90.00;;;;;;5059897;28;20472;-53
2021/09/07 09:06:25;;;;;;;13.67;12.57;;;32.60;83.80;;;;;;5060198;28;20430;-55
2021/09/07 09:09:07;;;;;;;12.30;11.20;;;32.40;84.10;;;;;;5060215;28;20536;-52
2021/09/07 09:11:55;;;;;;;11.37;10.57;;;33.40;80.40;;;;;;5060091;28;20495;-51
2021/09/07 09:14:33;;;;;;;12.00;11.17;;;32.10;79.50;;;;;;5060448;28;20456;-55
2021/09/07 09:17:19;;;;;;;12.67;11.50;;;30.30;84.20;;;;;;5059948;28;20829;-51
2021/09/07 09:20:00;;;;;;;12.20;11.20;;;29.10;87.70;;;;;;5060440;28;20444;-49
2021/09/07 09:22:43;;;;;;;11.20;10.33;;;28.70;88.30;;;;;;5059475;28;20482;-50
2021/09/07 09:25:26;;;;;;;12.17;11.17;;;28.20;90.40;;;;;;5059744;28;20445;-55
2021/09/07 09:27:55;;;;;;;11.97;10.97;;;28.70;90.50;;;;;;5056758;28;20437;-50
2021/09/07 09:30:29;;;;;;;12.00;10.90;;;29.30;89.80;;;;;;5058287;28;20506;-50
2021/09/07 09:33:00;;;;;;;11.53;10.63;;;29.50;89.10;;;;;;5059187;28;20432;-54
2021/09/07 09:35:28;;;;;;;13.80;12.70;;;29.80;89.20;;;;;;5059457;28;20620;-48
2021/09/07 09:37:56;;;;;;;11.40;10.57;;;29.70;88.00;;;;;;5054378;28;20668;-53
2021/09/07 09:40:25;;;;;;;11.13;10.27;;;29.30;87.50;;;;;;5059885;28;20490;-56
2021/09/07 09:42:54;;;;;;;9.63;8.90;;;29.10;87.40;;;;;;5059424;28;20476;-49
2021/09/07 09:45:29;;;;;;;10.97;9.97;;;28.80;87.20;;;;;;5055993;28;20491;-51
2021/09/07 09:47:59;;;;;;;11.00;10.00;;;28.20;89.80;;;;;;5059655;28;20500;-50
2021/09/07 09:50:27;;;;;;;10.80;9.90;;;27.90;90.30;;;;;;5059813;28;20468;-52
2021/09/07 09:52:55;;;;;;;11.03;10.13;;;27.40;90.50;;;;;;5059699;28;20440;-52
2021/09/07 09:55:23;;;;;;;11.70;10.70;;;27.30;90.90;;;;;;5051782;28;20832;-52
2021/09/07 09:57:50;;;;;;;10.57;9.77;;;27.30;90.90;;;;;;5058191;28;20417;-53
2021/09/07 10:00:17;;;;;;;11.10;10.13;;;27.40;91.20;;;;;;5059163;28;20655;-51
2021/09/07 10:02:45;;;;;;;10.60;9.63;;;27.10;91.20;;;;;;5059589;28;20482;-48
2021/09/07 10:05:14;;;;;;;10.70;9.73;;;26.90;91.20;;;;;;5059360;28;20430;-52
2021/09/07 10:08:02;;;;;;;11.03;10.03;;;26.90;91.50;;;;;;5054125;28;20433;-53
2021/09/07 10:10:31;;;;;;;11.50;10.47;;;26.60;92.70;;;;;;5060387;28;20730;-53
2021/09/07 10:13:01;;;;;;;11.60;10.23;;;26.80;92.40;;;;;;5059157;28;20786;-54
2021/09/07 10:15:41;;;;;;;10.50;9.80;;;26.80;92.00;;;;;;5059028;28;20782;-51
2021/09/07 10:24:05;;;;;;;10.97;9.87;;;26.90;92.20;;;;;;5058847;28;20472;-52
2021/09/07 10:26:45;;;;;;;10.40;9.40;;;26.60;92.70;;;;;;5059673;28;20433;-51
2021/09/07 10:29:40;;;;;;;10.97;10.00;;;26.60;92.40;;;;;;5058603;28;20570;-51
2021/09/07 10:32:24;;;;;;;11.57;10.43;;;26.50;92.50;;;;;;5056371;28;20490;-51
2021/09/07 10:35:09;;;;;;;11.67;10.57;;;26.10;92.80;;;;;;5059559;28;20444;-50
2021/09/07 10:38:04;;;;;;;10.40;9.60;;;26.20;92.60;;;;;;5056141;28;20444;-53
2021/09/07 10:40:46;;;;;;;11.47;10.50;;;25.60;93.40;;;;;;5053511;28;20458;-53
2021/09/07 10:43:48;;;;;;;11.20;10.10;;;25.50;93.60;;;;;;5058104;28;20818;-52
2021/09/07 10:46:41;;;;;;;9.33;8.57;;;25.10;93.60;;;;;;5055164;28;20431;-50
2021/09/07 10:49:19;;;;;;;9.77;8.97;;;25.30;93.30;;;;;;5058653;28;20437;-53
2021/09/07 10:52:04;;;;;;;9.40;8.70;;;25.40;93.00;;;;;;5057031;28;20569;-50
2021/09/07 10:54:34;;;;;;;10.50;9.60;;;26.10;93.10;;;;;;5058975;28;20436;-54
2021/09/07 10:57:01;;;;;;;10.13;9.33;;;26.70;92.60;;;;;;5058714;28;20738;-53
2021/09/07 10:59:51;;;;;;;9.97;9.00;;;26.80;91.80;;;;;;5058817;28;20487;-51
2021/09/07 11:02:38;;;;;;;11.37;10.37;;;26.80;92.10;;;;;;5050568;28;20432;-48
2021/09/07 11:05:36;;;;;;;11.13;10.10;;;26.40;92.40;;;;;;5058673;28;20453;-50
2021/09/07 11:08:06;;;;;;;11.33;10.33;;;26.00;92.80;;;;;;5058709;28;20440;-48
2021/09/07 11:10:41;;;;;;;15.63;10.17;;;25.90;93.00;;;;;;5058133;28;20497;-53
2021/09/07 11:13:17;;;;;;;10.83;9.93;;;26.00;93.20;;;;;;5058844;28;20763;-52
2021/09/07 11:15:45;;;;;;;10.20;9.20;;;26.10;93.00;;;;;;5062419;28;20487;-53
2021/09/07 11:18:14;;;;;;;12.20;11.10;;;26.50;93.30;;;;;;5062396;28;20439;-51
2021/09/07 11:20:45;;;;;;;10.50;9.60;;;26.40;92.70;;;;;;5062307;28;20531;-52
2021/09/07 11:23:23;;;;;;;10.90;10.00;;;26.40;92.30;;;;;;5062372;28;20810;-51
2021/09/07 11:26:12;;;;;;;11.40;10.53;;;26.40;92.90;;;;;;5061390;28;20482;-49
2021/09/07 11:28:44;;;;;;;10.80;9.90;;;26.40;92.70;;;;;;5062425;28;20444;-52
2021/09/07 11:31:12;;;;;;;12.17;11.07;;;26.20;92.60;;;;;;5062992;28;20475;-53
2021/09/07 11:33:42;;;;;;;10.10;9.40;;;25.50;93.30;;;;;;5057817;28;20509;-52
2021/09/07 11:36:17;;;;;;;10.47;9.63;;;25.40;92.70;;;;;;5060570;28;20438;-54
2021/09/07 11:38:47;;;;;;;10.13;9.23;;;24.80;93.40;;;;;;5057833;28;20467;-51
2021/09/07 11:41:16;;;;;;;9.63;8.90;;;24.80;93.40;;;;;;5061786;28;20447;-49
2021/09/07 11:43:46;;;;;;;10.90;10.00;;;25.00;93.90;;;;;;5060586;28;20476;-56
2021/09/07 11:46:30;;;;;;;10.43;9.63;;;25.10;93.90;;;;;;5061037;28;20493;-53
2021/09/07 11:49:12;;;;;;;10.80;9.90;;;25.10;93.00;;;;;;5059629;28;20805;-52
2021/09/07 11:51:41;;;;;;;11.47;10.47;;;25.50;93.10;;;;;;5061225;28;20522;-53
2021/09/07 11:54:14;;;;;;;11.70;10.70;;;25.60;92.80;;;;;;5061708;28;20478;-51
2021/09/07 11:56:41;;;;;;;9.57;8.77;;;25.60;92.90;;;;;;5061474;28;20436;-49
2021/09/07 11:59:17;;;;;;;9.27;8.57;;;25.50;93.00;;;;;;5062188;28;20440;-51
2021/09/07 12:01:53;;;;;;;11.20;10.20;;;25.90;92.50;;;;;;5058560;28;20868;-49
2021/09/07 12:04:22;;;;;;;10.17;9.30;;;26.00;92.10;;;;;;5053387;28;20586;-54
2021/09/07 12:06:51;;;;;;;9.97;9.07;;;25.90;91.40;;;;;;5061486;28;20440;-52
2021/09/07 12:09:29;;;;;;;10.43;9.40;;;25.50;91.60;;;;;;5061713;28;20512;-54
2021/09/07 12:12:02;;;;;;;9.33;8.73;;;25.40;91.70;;;;;;5058557;28;20662;-51
2021/09/07 12:14:44;;;;;;;9.00;8.30;;;25.60;91.30;;;;;;5061680;28;20441;-51
2021/09/07 12:17:17;;;;;;;9.87;9.00;;;25.30;91.60;;;;;;5060973;28;20767;-55
2021/09/07 12:19:49;;;;;;;11.47;10.47;;;25.10;91.90;;;;;;5061776;28;20444;-51
2021/09/07 12:22:20;;;;;;;11.10;10.30;;;24.70;91.40;;;;;;5054883;28;20443;-48
2021/09/07 12:25:13;;;;;;;9.20;8.50;;;24.80;91.50;;;;;;5060930;28;20534;-50
2021/09/07 12:27:53;;;;;;;9.60;8.70;;;25.00;91.80;;;;;;5061357;28;20470;-51
2021/09/07 12:30:33;;;;;;;8.90;8.00;;;25.10;92.10;;;;;;5054994;28;20444;-49
2021/09/07 12:33:16;;;;;;;8.97;8.20;;;25.20;92.10;;;;;;5058559;28;20786;-52
2021/09/07 12:35:50;;;;;;;9.37;8.67;;;25.40;92.40;;;;;;5060658;28;20432;-54
2021/09/07 12:38:21;;;;;;;8.80;8.10;;;25.70;91.90;;;;;;5056300;28;20507;-51
2021/09/07 12:40:52;;;;;;;9.30;8.47;;;25.20;92.20;;;;;;5054018;28;20507;-49
2021/09/07 12:43:24;;;;;;;11.30;10.20;;;24.60;93.30;;;;;;5060543;28;20541;-50
2021/09/07 12:45:55;;;;;;;10.57;9.67;;;24.80;93.90;;;;;;5061489;28;20460;-54
2021/09/07 12:48:23;;;;;;;9.57;8.50;;;25.20;93.40;;;;;;5060344;28;20648;-49
2021/09/07 12:50:51;;;;;;;10.77;9.67;;;25.50;93.00;;;;;;5060916;28;20460;-49
2021/09/07 12:53:23;;;;;;;10.30;9.47;;;25.60;93.50;;;;;;5059771;28;20441;-52
2021/09/07 12:56:00;;;;;;;10.13;9.23;;;25.80;93.20;;;;;;5061579;28;20535;-54
2021/09/07 12:58:29;;;;;;;10.60;9.67;;;25.80;93.60;;;;;;5060944;28;20450;-51
2021/09/07 13:00:59;;;;;;;10.87;9.97;;;25.90;93.70;;;;;;5062703;28;20468;-49